Time;durP1;ratioP1;P1;durP2;ratioP2;P2;SDS_P1;SDS_P2;PMS_P1;PMS_P2;Temp;Humidity;BMP_temperature;BMP_pressure;BME280_temperature;BME280_humidity;BME280_pressure;Samples;Min_cycle;Max_cycle;Signal;HPM_P1;HPM_P2
2022/12/28 00:03:11;;;;;;;;;;;;;;;;;;;;;
2022/12/28 00:06:21;;;;;;;;;;;;;;;;;;;;;
2022/12/28 00:09:30;;;;;;;16.20;4.80;;;;;;;;;;6276619;22;20027;-92
2022/12/28 00:23:19;;;;;;;11.40;5.23;;;;;;;;;;6233849;22;20502;-93
2022/12/28 01:16:06;;;;;;;;;;;;;;;;;;;;;
2022/12/28 01:23:33;;;;;;;;;;;;;;;;;;;;;
2022/12/28 01:32:56;;;;;;;15.38;6.18;;;;;;;;;;6194329;23;20059;-93
2022/12/28 01:35:57;;;;;;;9.40;5.40;;;;;;;;;;6129384;23;20013;-95
2022/12/28 01:39:12;;;;;;;;;;;;;;;;;;;;;
2022/12/28 01:42:27;;;;;;;;;;;;;;;;;;;;;
2022/12/28 01:45:49;;;;;;;;;;;;;;;;;;;;;
2022/12/28 01:49:17;;;;;;;18.10;6.53;;;5.50;99.90;;;;;;6269057;22;20079;-95
2022/12/28 01:52:50;;;;;;;;;;;;;;;;;;;;;
2022/12/28 02:06:36;;;;;;;;;;;;;;;;;;;;;
2022/12/28 02:09:46;;;;;;;12.80;6.70;;;;;;;;;;6053432;23;19930;-94
2022/12/28 03:02:29;;;;;;;;;;;;;;;;;;;;;
2022/12/28 03:32:46;;;;;;;;;;;;;;;;;;;;;
2022/12/28 03:46:29;;;;;;;;;;;;;;;;;;;;;
2022/12/28 03:49:27;;;;;;;;;;;;;;;;;;;;;
2022/12/28 03:52:42;;;;;;;11.73;7.43;;;;;;;;;;6216741;23;20019;-93
2022/12/28 03:55:44;;;;;;;;;;;;;;;;;;;;;
2022/12/28 03:58:57;;;;;;;12.30;7.30;;;;;;;;;;6218793;23;20015;-94
2022/12/28 04:02:33;;;;;;;10.90;6.65;;;;;;;;;;6196498;23;20147;-95
2022/12/28 04:08:25;;;;;;;10.82;6.95;;;;;;;;;;6217154;23;20521;-90
2022/12/28 04:11:29;;;;;;;12.40;6.18;;;;;;;;;;6216083;23;20466;-91
2022/12/28 04:14:29;;;;;;;11.07;6.78;;;;;;;;;;6194393;23;20258;-91
2022/12/28 04:17:17;;;;;;;12.80;6.63;;;;;;;;;;6224702;23;20031;-96
2022/12/28 04:20:25;;;;;;;10.20;6.80;;;;;;;;;;6225882;23;20091;-94
2022/12/28 04:23:17;;;;;;;9.73;5.45;;;;;;;;;;6221240;23;20091;-93
2022/12/28 04:26:08;;;;;;;8.23;5.45;;;;;;;;;;6225543;23;20505;-90
2022/12/28 04:32:25;;;;;;;13.45;7.20;;;;;;;;;;6246889;23;20104;-93
2022/12/28 04:35:13;;;;;;;10.13;6.70;;;;;;;;;;6223743;23;20015;-92
2022/12/28 04:38:19;;;;;;;9.40;5.88;;;;;;;;;;6203260;23;20234;-93
2022/12/28 04:41:08;;;;;;;11.55;6.47;;;;;;;;;;6205944;23;20342;-93
2022/12/28 04:44:08;;;;;;;10.00;6.65;;;;;;;;;;6225456;23;20103;-94
2022/12/28 04:46:55;;;;;;;8.32;5.82;;;;;;;;;;6223103;23;20058;-93
2022/12/28 04:49:40;;;;;;;9.05;6.32;;;;;;;;;;6202796;23;20024;-92
2022/12/28 04:52:39;;;;;;;12.18;6.97;;;;;;;;;;6224206;23;20508;-93
2022/12/28 04:55:52;;;;;;;11.35;7.10;;;;;;;;;;6223528;23;20011;-93
2022/12/28 04:58:40;;;;;;;11.10;6.53;;;;;;;;;;6204777;23;20066;-92
2022/12/28 05:01:45;;;;;;;12.70;7.25;;;;;;;;;;6223778;23;20011;-90
2022/12/28 05:04:32;;;;;;;11.40;7.10;;;;;;;;;;6202615;23;20023;-91
2022/12/28 05:07:29;;;;;;;10.18;6.80;;;;;;;;;;6224756;23;20371;-91
2022/12/28 05:10:23;;;;;;;9.98;6.90;;;;;;;;;;6224965;23;20059;-92
2022/12/28 05:13:20;;;;;;;;;;;;;;;;;;;;;
2022/12/28 05:16:14;;;;;;;12.48;7.63;;;;;;;;;;6246749;23;20019;-90
2022/12/28 05:19:24;;;;;;;9.05;6.38;;;;;;;;;;6225875;23;20016;-93
2022/12/28 05:22:19;;;;;;;13.30;9.00;;;;;;;;;;6223909;23;20119;-91
2022/12/28 05:25:10;;;;;;;11.10;7.80;;;;;;;;;;6205434;23;20023;-94
2022/12/28 05:28:00;;;;;;;13.38;8.80;;;;;;;;;;6204942;23;20070;-92
2022/12/28 05:31:04;;;;;;;;;;;;;;;;;;;;;
2022/12/28 05:33:52;;;;;;;13.98;8.80;;;;;;;;;;6247700;23;20066;-91
2022/12/28 05:36:39;;;;;;;13.52;9.23;;;;;;;;;;6224968;23;20095;-93
2022/12/28 05:39:41;;;;;;;13.45;9.23;;;;;;;;;;6203445;23;20026;-94
2022/12/28 05:42:29;;;;;;;17.85;10.57;;;;;;;;;;6224719;23;20020;-93
2022/12/28 05:45:19;;;;;;;11.82;8.68;;;;;;;;;;6224429;23;20023;-92
2022/12/28 05:48:18;;;;;;;15.77;9.88;;;;;;;;;;6225886;23;20011;-93
2022/12/28 05:51:08;;;;;;;14.63;9.63;;;;;;;;;;6206036;23;20142;-92
2022/12/28 05:53:53;;;;;;;15.95;10.68;;;;;;;;;;6224311;23;20480;-92
2022/12/28 05:56:53;;;;;;;;;;;;;;;;;;;;;
2022/12/28 05:59:46;;;;;;;12.88;9.27;;;;;;;;;;6246961;23;20041;-93
2022/12/28 06:02:38;;;;;;;15.95;10.52;;;;;;;;;;6202790;23;20019;-92
2022/12/28 06:05:33;;;;;;;;;;;;;;;;;;;;;
2022/12/28 06:08:24;;;;;;;16.10;10.77;;;;;;;;;;6245763;23;20093;-93
2022/12/28 06:11:10;;;;;;;19.48;11.32;;;;;;;;;;6203580;23;20019;-91
2022/12/28 06:13:58;;;;;;;17.95;11.70;;;;;;;;;;6224191;23;20018;-92
2022/12/28 06:16:45;;;;;;;17.50;11.07;;;;;;;;;;6223572;23;20023;-91
2022/12/28 06:19:32;;;;;;;13.68;10.32;;;;;;;;;;6223350;23;20057;-90
2022/12/28 06:22:35;;;;;;;16.23;10.00;;;;;;;;;;6223455;23;20081;-90
2022/12/28 06:25:32;;;;;;;;;;;;;;;;;;;;;
2022/12/28 06:28:17;;;;;;;14.43;8.77;;;;;;;;;;6246138;23;20034;-91
2022/12/28 06:31:03;;;;;;;12.80;9.07;;;;;;;;;;6223891;23;20011;-93
2022/12/28 06:33:55;;;;;;;14.43;9.25;;;;;;;;;;6203215;23;20561;-91
2022/12/28 06:36:55;;;;;;;15.55;9.20;;;;;;;;;;6223569;23;20339;-91
2022/12/28 06:39:42;;;;;;;13.30;9.60;;;;;;;;;;6224013;23;20011;-92
2022/12/28 06:42:27;;;;;;;13.27;9.43;;;;;;;;;;6245986;23;20335;-91
2022/12/28 06:45:12;;;;;;;14.88;9.00;;;;;;;;;;6223876;23;20020;-91
2022/12/28 06:47:56;;;;;;;16.75;10.60;;;;;;;;;;6224429;23;20026;-90
2022/12/28 06:50:53;;;;;;;15.13;9.77;;;;;;;;;;6227518;23;20011;-90
2022/12/28 06:53:40;;;;;;;14.77;9.70;;;;;;;;;;6247676;23;20034;-91
2022/12/28 06:56:32;;;;;;;15.00;9.60;;;;;;;;;;6224796;23;20011;-90
2022/12/28 06:59:19;;;;;;;13.82;9.43;;;;;;;;;;6228023;23;20011;-91
2022/12/28 07:02:04;;;;;;;12.18;8.57;;;;;;;;;;6223458;23;20015;-90
2022/12/28 07:04:49;;;;;;;13.18;8.80;;;;;;;;;;6223459;23;20023;-90
2022/12/28 07:07:37;;;;;;;13.30;9.02;;;;;;;;;;6222332;23;20060;-89
2022/12/28 07:10:23;;;;;;;13.00;8.77;;;;;;;;;;6201229;23;20457;-89
2022/12/28 07:13:08;;;;;;;13.15;9.10;;;;;;;;;;6223143;23;20058;-87
2022/12/28 07:16:07;;;;;;;11.55;8.70;;;;;;;;;;6222576;22;20091;-90
2022/12/28 07:18:51;;;;;;;15.40;8.93;;;;;;;;;;6223080;23;20011;-90
2022/12/28 07:21:39;;;;;;;12.00;8.70;;;;;;;;;;6222104;23;20020;-89
2022/12/28 07:24:45;;;;;;;;;;;;;;;;;;;;;
2022/12/28 07:27:30;;;;;;;14.70;9.65;;;;;;;;;;6244478;23;20074;-89
2022/12/28 07:30:18;;;;;;;15.38;9.73;;;;;;;;;;6222841;23;20085;-88
2022/12/28 07:33:05;;;;;;;17.15;10.88;;;;;;;;;;6202527;23;20023;-90
2022/12/28 07:35:50;;;;;;;18.38;11.15;;;;;;;;;;6222924;23;20055;-89
2022/12/28 07:38:37;;;;;;;16.33;10.50;;;;;;;;;;6244880;23;20359;-91
2022/12/28 07:41:34;;;;;;;18.23;10.52;;;;;;;;;;6222758;23;20015;-89
2022/12/28 07:44:24;;;;;;;16.40;11.35;;;;;;;;;;6245339;23;20066;-89
2022/12/28 07:47:18;;;;;;;18.45;10.90;;;;;;;;;;6222682;23;20045;-90
2022/12/28 07:50:06;;;;;;;16.00;11.80;;;;;;;;;;6222554;23;20070;-89
2022/12/28 07:52:51;;;;;;;16.48;11.98;;;;;;;;;;6222460;23;20066;-91
2022/12/28 07:55:53;;;;;;;17.40;11.35;;;;;;;;;;6221533;23;20504;-89
2022/12/28 07:58:52;;;;;;;;;;;;;;;;;;;;;
2022/12/28 08:01:42;;;;;;;14.25;10.55;;;;;;;;;;6244509;23;20014;-89
2022/12/28 08:04:54;;;;;;;16.17;9.82;;;;;;;;;;6222314;23;20023;-91
2022/12/28 08:07:42;;;;;;;11.43;8.82;;;;;;;;;;6222041;23;20015;-89
2022/12/28 08:22:03;;;;;;;14.90;9.93;;;8.70;99.90;;;;;;6034210;23;20067;-92
2022/12/28 08:24:51;;;;;;;15.80;9.65;;;;;;;;;;6015050;23;20419;-93
2022/12/28 08:27:44;;;;;;;16.70;10.90;;;;;;;;;;6082097;23;20021;-92
2022/12/28 08:31:02;;;;;;;;;;;;;;;;;;;;;
2022/12/28 08:47:58;;;;;;;13.98;9.60;;;;;;;;;;5945746;23;20029;-94
2022/12/28 08:51:06;;;;;;;13.55;7.82;;;;;;;;;;6112090;23;20056;-93
2022/12/28 09:00:36;;;;;;;;;;;8.70;99.90;;;;;;6210158;23;20062;-93
2022/12/28 09:03:41;;;;;;;14.73;7.70;;;;;;;;;;6197302;23;20350;-93
2022/12/28 09:06:32;;;;;;;12.05;7.45;;;;;;;;;;6193748;23;20451;-96
2022/12/28 09:09:20;;;;;;;11.82;7.05;;;;;;;;;;6172903;23;20067;-93
2022/12/28 09:12:07;;;;;;;10.95;6.65;;;;;;;;;;6193744;23;20011;-93
2022/12/28 09:15:00;;;;;;;9.98;7.35;;;;;;;;;;6193719;23;20020;-94
2022/12/28 09:17:53;;;;;;;11.05;6.85;;;;;;;;;;6193346;23;20059;-95
2022/12/28 09:20:59;;;;;;;10.57;7.68;;;;;;;;;;6202634;23;20023;-94
2022/12/28 09:23:57;;;;;;;10.98;6.93;;;;;;;;;;6246150;23;20023;-93
2022/12/28 09:26:54;;;;;;;;;;;;;;;;;;;;;
2022/12/28 09:30:04;;;;;;;14.02;7.47;;;;;;;;;;6246305;23;20059;-93
2022/12/28 09:36:17;;;;;;;;;;;;;;;;;;;;;
2022/12/28 09:39:16;;;;;;;11.80;7.25;;;;;;;;;;6226344;23;20131;-93
2022/12/28 09:42:20;;;;;;;11.68;7.07;;;;;;;;;;6223569;23;20011;-93
2022/12/28 09:45:05;;;;;;;13.13;6.82;;;;;;;;;;6223960;23;20143;-94
2022/12/28 09:48:05;;;;;;;11.02;6.90;;;;;;;;;;6223367;23;20011;-92
2022/12/28 09:50:58;;;;;;;10.95;6.55;;;;;;;;;;6223623;23;20027;-92
2022/12/28 09:53:48;;;;;;;9.57;6.53;;;;;;;;;;6225348;23;20070;-92
2022/12/28 09:56:46;;;;;;;12.45;7.22;;;;;;;;;;6225139;23;20094;-92
2022/12/28 09:59:36;;;;;;;13.52;6.95;;;;;;;;;;6224999;23;20059;-92
2022/12/28 10:02:40;;;;;;;;;;;;;;;;;;;;;
2022/12/28 10:05:26;;;;;;;;;;;;;;;;;;6248826;23;20066;-93
2022/12/28 10:08:13;;;;;;;;;;;8.90;99.90;;;;;;6225093;23;19969;-93
2022/12/28 10:11:00;;;;;;;;;;;8.90;99.90;;;;;;6224433;23;19910;-91
2022/12/28 10:14:07;;;;;;;;;;;9.00;99.90;;;;;;6225028;23;19954;-91
2022/12/28 10:16:55;;;;;;;;;;;9.00;99.90;;;;;;6220289;23;19910;-92
2022/12/28 10:19:48;;;;;;;;;;;9.00;99.90;;;;;;6225495;23;20402;-93
2022/12/28 10:22:46;;;;;;;;;;;9.00;99.90;;;;;;6224977;23;20285;-93
2022/12/28 10:25:35;;;;;;;;;;;9.00;99.90;;;;;;6224790;23;19926;-94
2022/12/28 10:28:22;;;;;;;;;;;9.10;99.90;;;;;;6225417;23;20243;-92
2022/12/28 10:31:06;;;;;;;;;;;9.10;99.90;;;;;;6225238;23;19970;-92
2022/12/28 10:33:59;;;;;;;;;;;9.10;99.90;;;;;;6225172;23;19910;-92
2022/12/28 10:37:08;;;;;;;;;;;;;;;;;;6247702;23;19926;-94
2022/12/28 10:40:09;;;;;;;;;;;9.10;99.90;;;;;;6247250;23;19953;-92
2022/12/28 10:42:59;;;;;;;;;;;9.10;99.90;;;;;;6225006;23;19911;-90
2022/12/28 10:46:10;;;;;;;;;;;9.10;99.90;;;;;;6204520;23;19966;-92
2022/12/28 10:49:24;;;;;;;;;;;9.20;99.90;;;;;;6204918;23;19966;-92
2022/12/28 10:52:15;;;;;;;;;;;9.10;99.90;;;;;;6229281;23;19991;-94
2022/12/28 10:55:30;;;;;;;;;;;;;;;;;;;;;
2022/12/28 10:58:31;;;;;;;;;;;;;;;;;;;;;
2022/12/28 11:01:32;;;;;;;;;;;9.10;99.90;;;;;;6247540;23;19994;-92
2022/12/28 11:04:31;;;;;;;;;;;9.20;99.90;;;;;;6224172;23;19919;-93
2022/12/28 11:07:35;;;;;;;;;;;;;;;;;;;;;
2022/12/28 11:10:31;;;;;;;;;;;9.20;99.90;;;;;;6247679;23;19910;-92
2022/12/28 11:13:27;;;;;;;;;;;9.20;99.90;;;;;;6224250;23;19938;-93
2022/12/28 11:16:55;;;;;;;;;;;9.20;99.90;;;;;;6224139;23;19911;-91
2022/12/28 11:23:17;;;;;;;;;;;9.20;99.90;;;;;;6246358;23;19910;-92
2022/12/28 11:26:32;;;;;;;;;;;9.20;99.90;;;;;;6224350;23;19990;-91
2022/12/28 11:29:36;;;;;;;;;;;9.20;99.90;;;;;;6224300;23;19930;-91
2022/12/28 11:32:40;;;;;;;;;;;;;;;;;;;;;
2022/12/28 11:35:29;;;;;;;;;;;9.10;99.90;;;;;;6247586;23;19910;-92
2022/12/28 11:38:35;;;;;;;;;;;;;;;;;;6224330;23;19994;-91
2022/12/28 11:41:26;;;;;;;;;;;9.20;99.90;;;;;;6247256;23;19966;-93
2022/12/28 11:44:50;;;;;;;;;;;;;;;;;;;;;
2022/12/28 11:47:56;;;;;;;;;;;9.20;99.90;;;;;;6246795;23;19974;-91
2022/12/28 11:50:50;;;;;;;;;;;9.20;99.90;;;;;;6223912;23;20338;-93
2022/12/28 11:53:44;;;;;;;;;;;9.20;99.90;;;;;;6223636;23;19926;-93
2022/12/28 11:57:11;;;;;;;;;;;9.20;99.90;;;;;;6223968;23;19911;-92
2022/12/28 12:00:15;;;;;;;;;;;9.10;99.90;;;;;;6224471;23;19961;-93
2022/12/28 12:03:09;;;;;;;;;;;9.20;99.90;;;;;;6223340;23;19910;-93
2022/12/28 12:05:56;;;;;;;;;;;9.20;99.90;;;;;;6204380;23;19938;-93
2022/12/28 12:09:04;;;;;;;;;;;9.10;99.90;;;;;;6223790;23;19911;-92
2022/12/28 12:15:15;;;;;;;;;;;9.20;99.90;;;;;;6246367;23;20042;-93
2022/12/28 12:18:14;;;;;;;;;;;;;;;;;;;;;
2022/12/28 12:21:13;;;;;;;;;;;9.10;99.90;;;;;;6247159;23;20015;-93
2022/12/28 12:27:48;;;;;;;;;;;9.10;99.90;;;;;;6246810;23;19954;-93
2022/12/28 12:30:53;;;;;;;;;;;9.20;99.90;;;;;;6224183;23;19911;-93
2022/12/28 12:33:42;;;;;;;;;;;9.10;99.90;;;;;;6224069;23;19950;-92
2022/12/28 12:36:38;;;;;;;;;;;9.20;99.90;;;;;;6224798;23;20349;-93
2022/12/28 12:39:30;;;;;;;;;;;;;;;;;;6224103;23;19917;-93
2022/12/28 12:42:37;;;;;;;;;;;9.10;99.90;;;;;;6224530;23;19909;-94
2022/12/28 12:46:09;;;;;;;;;;;9.10;99.90;;;;;;6224378;23;19918;-93
2022/12/28 12:49:05;;;;;;;;;;;9.10;99.90;;;;;;6249067;23;20025;-92
2022/12/28 12:52:13;;;;;;;;;;;9.20;99.90;;;;;;6225461;23;20286;-95
2022/12/28 12:58:34;;;;;;;;;;;9.10;99.90;;;;;;6246855;23;19990;-93
2022/12/28 13:07:46;;;;;;;;;;;8.90;99.90;;;;;;6247146;23;19911;-93
2022/12/28 13:10:57;;;;;;;;;;;9.10;99.90;;;;;;6224465;23;19999;-91
2022/12/28 13:13:46;;;;;;;;;;;9.10;99.90;;;;;;6224181;23;19946;-93
2022/12/28 13:16:37;;;;;;;;;;;9.00;99.90;;;;;;6223990;23;20285;-92
2022/12/28 13:19:22;;;;;;;;;;;9.10;99.90;;;;;;6223719;23;19934;-93
2022/12/28 13:22:42;;;;;;;;;;;;;;;;;;;;;
2022/12/28 13:25:48;;;;;;;;;;;9.00;99.90;;;;;;6246463;23;19981;-94
2022/12/28 13:28:39;;;;;;;;;;;;;;;;;;6248287;23;19914;-94
2022/12/28 13:31:48;;;;;;;;;;;9.10;99.90;;;;;;6225766;23;19952;-92
2022/12/28 13:34:44;;;;;;;;;;;;;;;;;;;;;
2022/12/28 13:37:32;;;;;;;;;;;9.10;99.90;;;;;;6248305;23;19910;-94
2022/12/28 13:40:36;;;;;;;;;;;8.90;99.90;;;;;;6225508;23;19949;-91
2022/12/28 13:43:54;;;;;;;;;;;9.00;99.90;;;;;;6248892;23;19918;-92
2022/12/28 13:49:48;;;;;;;;;;;9.00;99.90;;;;;;6248510;23;19925;-93
2022/12/28 13:52:39;;;;;;;;;;;;;;;;;;6225815;23;19910;-93
2022/12/28 13:55:38;;;;;;;;;;;9.00;99.90;;;;;;6225595;23;20284;-92
2022/12/28 13:58:32;;;;;;;;;;;9.00;99.90;;;;;;6225931;23;19910;-93
2022/12/28 14:01:25;;;;;;;;;;;9.00;99.90;;;;;;6226088;23;19991;-93
2022/12/28 14:04:28;;;;;;;;;;;9.10;99.90;;;;;;6241850;23;19958;-94
2022/12/28 14:07:21;;;;;;;;;;;8.90;99.90;;;;;;6225789;23;19953;-92
2022/12/28 14:13:16;;;;;;;;;;;9.00;99.90;;;;;;6247918;23;19910;-92
2022/12/28 14:16:41;;;;;;;;;;;8.80;99.90;;;;;;6225575;23;20369;-93
2022/12/28 14:22:48;;;;;;;;;;;8.80;99.90;;;;;;6248229;23;19957;-93
2022/12/28 14:29:04;;;;;;;;;;;8.70;99.90;;;;;;6248198;23;19914;-95
2022/12/28 14:35:03;;;;;;;;;;;8.80;99.90;;;;;;6158318;22;19984;-95
2022/12/28 14:38:20;;;;;;;;;;;;;;;;;;;;;
2022/12/28 14:41:24;;;;;;;;;;;8.70;99.90;;;;;;6248201;23;19936;-93
2022/12/28 14:47:52;;;;;;;;;;;;;;;;;;;;;
2022/12/28 14:50:39;;;;;;;;;;;8.80;99.90;;;;;;6248114;23;19910;-93
2022/12/28 14:53:29;;;;;;;;;;;8.70;99.90;;;;;;6225196;23;19989;-93
2022/12/28 14:56:23;;;;;;;;;;;8.80;99.90;;;;;;6225799;23;20230;-95
2022/12/28 14:59:17;;;;;;;;;;;8.80;99.90;;;;;;6225903;23;19910;-95
2022/12/28 15:05:46;;;;;;;;;;;;;;;;;;6247766;23;19946;-94
2022/12/28 15:11:56;;;;;;;;;;;;;;;;;;;;;
2022/12/28 15:15:11;;;;;;;;;;;;;;;;;;;;;
2022/12/28 15:18:14;;;;;;;;;;;;;;;;;;;;;
2022/12/28 15:21:31;;;;;;;;;;;8.90;99.90;;;;;;6227615;23;19965;-93
2022/12/28 15:24:44;;;;;;;;;;;8.90;99.90;;;;;;6225236;23;20274;-95
2022/12/28 15:27:38;;;;;;;;;;;;;;;;;;;;;
2022/12/28 15:30:49;;;;;;;;;;;8.80;99.90;;;;;;6230234;23;19910;-94
2022/12/28 15:33:39;;;;;;;;;;;;;;;;;;6224549;23;19914;-92
2022/12/28 15:36:57;;;;;;;;;;;8.80;99.90;;;;;;6223951;23;19954;-92
2022/12/28 15:46:02;;;;;;;;;;;8.80;99.90;;;;;;6236003;23;19934;-92
2022/12/28 15:49:00;;;;;;;;;;;;;;;;;;;;;
2022/12/28 15:51:47;;;;;;;;;;;8.80;99.90;;;;;;6246513;23;19950;-94
2022/12/28 15:54:42;;;;;;;;;;;;;;;;;;;;;
2022/12/28 15:57:29;;;;;;;;;;;8.90;99.90;;;;;;6247173;23;19949;-93
2022/12/28 16:03:45;;;;;;;;;;;9.00;99.90;;;;;;6246388;23;19910;-92
2022/12/28 16:06:43;;;;;;;;;;;8.80;99.90;;;;;;6224079;23;20333;-92
2022/12/28 16:09:37;;;;;;;;;;;;;;;;;;;;;
2022/12/28 16:12:24;;;;;;;;;;;9.00;99.90;;;;;;6247505;23;19911;-95
2022/12/28 16:15:36;;;;;;;;;;;8.90;99.90;;;;;;6224602;23;20325;-93
2022/12/28 16:18:26;;;;;;;;;;;8.90;99.90;;;;;;6228414;23;19976;-95
2022/12/28 16:24:51;;;;;;;;;;;;;;;;;;;;;
2022/12/28 16:41:57;;;;;;;;;;;8.80;99.90;;;;;;6133046;23;19928;-94
2022/12/28 16:44:49;;;;;;;;;;;8.90;99.90;;;;;;6106138;23;19919;-93
2022/12/28 16:47:36;;;;;;;;;;;8.90;99.90;;;;;;6099231;23;19955;-92
2022/12/28 16:50:23;;;;;;;;;;;8.80;99.90;;;;;;6217321;23;19957;-90
2022/12/28 16:53:20;;;;;;;;;;;8.90;99.90;;;;;;6201788;23;19954;-96
2022/12/28 16:56:08;;;;;;;;;;;8.80;99.90;;;;;;6223833;23;19911;-93
2022/12/28 16:59:01;;;;;;;;;;;8.80;99.90;;;;;;6225274;23;19966;-94
2022/12/28 17:02:04;;;;;;;;;;;8.90;99.90;;;;;;6227733;23;19915;-92
2022/12/28 17:04:54;;;;;;;;;;;8.70;99.90;;;;;;6210399;23;19930;-92
2022/12/28 17:07:38;;;;;;;;;;;8.90;99.90;;;;;;6225703;23;19915;-93
2022/12/28 17:10:23;;;;;;;;;;;;;;;;;;6226732;23;19911;-95
2022/12/28 17:13:07;;;;;;;;;;;8.90;99.90;;;;;;6230541;23;20337;-95
2022/12/28 17:15:52;;;;;;;;;;;;;;;;;;6226097;23;19940;-94
2022/12/28 17:18:37;;;;;;;;;;;;;;;;;;6228817;23;20285;-93
2022/12/28 17:21:24;;;;;;;;;;;;;;;;;;6227821;23;20250;-95
2022/12/28 17:24:11;;;;;;;;;;;8.70;99.90;;;;;;6232150;23;19942;-96
2022/12/28 17:29:46;;;;;;;;;;;8.60;99.90;;;;;;6309480;22;19921;-95
2022/12/28 17:32:47;;;;;;;;;;;8.70;99.90;;;;;;6302788;22;19953;-95
2022/12/28 17:35:57;;;;;;;;;;;8.70;99.90;;;;;;6302977;22;19917;-94
2022/12/28 17:41:36;;;;;;;;;;;8.80;99.90;;;;;;6319615;22;19914;-95
2022/12/28 17:44:28;;;;;;;;;;;8.70;99.90;;;;;;6297531;22;19928;-96
2022/12/28 17:47:53;;;;;;;;;;;8.60;99.90;;;;;;6301830;22;19917;-96
2022/12/28 17:51:00;;;;;;;;;;;8.70;99.90;;;;;;6323319;22;19910;-93
2022/12/28 17:56:58;;;;;;;;;;;8.60;99.90;;;;;;6309724;22;19910;-94
2022/12/28 17:59:43;;;;;;;;;;;8.50;99.90;;;;;;6265784;22;19914;-93
2022/12/28 18:02:29;;;;;;;;;;;8.60;99.90;;;;;;6285741;22;19990;-94
2022/12/28 18:05:14;;;;;;;;;;;8.50;99.90;;;;;;6311779;22;19949;-93
2022/12/28 18:08:00;;;;;;;;;;;8.60;99.90;;;;;;6285248;22;19965;-94
2022/12/28 18:10:50;;;;;;;;;;;8.50;99.90;;;;;;6311891;22;19909;-95
2022/12/28 18:13:34;;;;;;;;;;;8.50;99.90;;;;;;6288192;22;19909;-93
2022/12/28 18:16:27;;;;;;;;;;;8.50;99.90;;;;;;6286269;22;20344;-95
2022/12/28 18:19:14;;;;;;;;;;;8.30;99.90;;;;;;6285535;22;19910;-92
2022/12/28 18:22:07;;;;;;;;;;;8.60;99.90;;;;;;6265086;22;20352;-93
2022/12/28 18:25:13;;;;;;;;;;;;;;;;;;6309744;22;20400;-93
2022/12/28 18:28:19;;;;;;;;;;;8.20;99.90;;;;;;6312432;22;19914;-95
2022/12/28 18:31:04;;;;;;;;;;;8.40;99.90;;;;;;6271118;22;20371;-93
2022/12/28 18:34:01;;;;;;;;;;;;;;;;;;;;;
2022/12/28 18:36:55;;;;;;;;;;;8.40;99.90;;;;;;6292728;22;19968;-94
2022/12/28 18:39:46;;;;;;;;;;;;;;;;;;6267255;22;19921;-95
2022/12/28 18:42:37;;;;;;;;;;;8.40;99.90;;;;;;6285737;22;19909;-95
2022/12/28 18:45:22;;;;;;;;;;;;;;;;;;6285966;22;19953;-94
2022/12/28 18:48:07;;;;;;;;;;;8.40;99.90;;;;;;6286292;22;19914;-96
2022/12/28 18:50:52;;;;;;;;;;;8.40;99.90;;;;;;6263014;22;19961;-94
2022/12/28 18:53:39;;;;;;;;;;;;;;;;;;6285158;22;19918;-94
2022/12/28 20:34:15;;;;;;;;;;;;;;;;;;;;;
2022/12/28 20:54:07;;;;;;;;;;;;;;;;;;;;;
2022/12/28 21:20:36;;;;;;;;;;;9.10;99.90;;;;;;6008178;23;20021;-95
2022/12/28 21:23:29;;;;;;;;;;;9.10;99.90;;;;;;6016119;23;19913;-92
2022/12/28 21:26:14;;;;;;;;;;;9.00;99.90;;;;;;6213390;23;20377;-92
2022/12/28 21:28:59;;;;;;;;;;;;;;;;;;6192687;23;20258;-91
2022/12/28 21:31:46;;;;;;;;;;;9.10;99.90;;;;;;6190857;23;19919;-90
2022/12/28 21:34:33;;;;;;;;;;;9.10;99.90;;;;;;6191936;23;19950;-92
2022/12/28 21:37:33;;;;;;;;;;;;;;;;;;6191548;23;19998;-94
2022/12/28 21:40:20;;;;;;;;;;;9.30;99.90;;;;;;6189471;23;20285;-91
2022/12/28 21:43:04;;;;;;;;;;;;;;;;;;6210486;23;20265;-93
2022/12/28 21:45:49;;;;;;;;;;;;;;;;;;6258021;22;19917;-94
2022/12/28 21:48:34;;;;;;;;;;;;;;;;;;6284216;22;19910;-92
2022/12/28 21:51:33;;;;;;;;;;;;;;;;;;6307369;22;19999;-92
2022/12/28 21:54:19;;;;;;;;;;;9.30;99.90;;;;;;6308238;22;19918;-93
2022/12/28 21:57:05;;;;;;;;;;;9.30;99.90;;;;;;6286148;22;19910;-93
2022/12/28 21:59:53;;;;;;;;;;;9.30;99.90;;;;;;6286910;22;20283;-91
2022/12/28 22:15:50;;;;;;;;;;;9.40;99.90;;;;;;6309122;22;20287;-90
2022/12/28 22:18:02;;;;;;;;;;;9.30;99.90;;;;;;6308804;22;19909;-91
2022/12/28 22:20:49;;;;;;;;;;;;;;;;;;6264528;22;19932;-92
2022/12/28 22:23:34;;;;;;;;;;;;;;;;;;6286083;22;19953;-94
2022/12/28 22:26:21;;;;;;;;;;;;;;;;;;6286480;22;19917;-92
2022/12/28 22:29:11;;;;;;;;;;;9.50;99.90;;;;;;6309209;22;19990;-94
2022/12/28 22:31:55;;;;;;;;;;;9.60;99.90;;;;;;6308820;22;20288;-92
2022/12/28 22:34:42;;;;;;;;;;;9.50;99.90;;;;;;6285365;22;20042;-93
2022/12/28 22:37:27;;;;;;;;;;;;;;;;;;6286060;22;20268;-93
2022/12/28 22:40:14;;;;;;;;;;;9.40;99.90;;;;;;6286393;22;19953;-92
2022/12/28 22:43:01;;;;;;;;;;;9.50;99.90;;;;;;6309351;22;19956;-92
2022/12/28 22:46:08;;;;;;;;;;;9.60;99.90;;;;;;6263563;22;20237;-91
2022/12/28 22:49:10;;;;;;;;;;;9.60;99.90;;;;;;6285752;22;19910;-91
2022/12/28 22:51:55;;;;;;;;;;;9.50;99.90;;;;;;6285978;22;20324;-94
2022/12/28 22:54:39;;;;;;;;;;;9.70;99.90;;;;;;6285557;22;19986;-93
2022/12/28 22:57:33;;;;;;;;;;;9.50;99.90;;;;;;6285841;22;20337;-93
2022/12/28 23:00:17;;;;;;;;;;;9.70;99.90;;;;;;6285457;22;19925;-92
2022/12/28 23:03:09;;;;;;;;;;;9.70;99.90;;;;;;6285934;22;20025;-92
2022/12/28 23:06:06;;;;;;;;;;;;;;;;;;;;;
2022/12/28 23:08:53;;;;;;;;;;;9.70;99.90;;;;;;6308747;22;19914;-94
2022/12/28 23:11:42;;;;;;;;;;;9.90;99.90;;;;;;6284877;22;19961;-92
2022/12/28 23:17:40;;;;;;;;;;;;;;;;;;;;;
2022/12/28 23:29:36;;;;;;;;;;;9.90;99.90;;;;;;6308220;22;20253;-91
2022/12/28 23:32:23;;;;;;;;;;;9.80;99.90;;;;;;6286072;22;19922;-91
2022/12/28 23:35:10;;;;;;;;;;;9.90;99.90;;;;;;6285441;22;20323;-90
2022/12/28 23:38:04;;;;;;;;;;;9.90;99.90;;;;;;6308764;22;19926;-91
2022/12/28 23:41:46;;;;;;;;;;;;;;;;;;6265218;22;19914;-91
2022/12/28 23:43:59;;;;;;;;;;;9.90;99.90;;;;;;6307582;22;19913;-91
2022/12/28 23:46:44;;;;;;;;;;;10.00;99.90;;;;;;6285137;22;19956;-92
2022/12/28 23:49:39;;;;;;;;;;;10.00;99.90;;;;;;6285058;22;19980;-91
2022/12/28 23:52:29;;;;;;;;;;;10.00;99.90;;;;;;6263960;22;19929;-93
2022/12/28 23:55:18;;;;;;;;;;;10.00;99.90;;;;;;6285361;22;19909;-91
2022/12/28 23:58:10;;;;;;;;;;;10.00;99.90;;;;;;6284312;22;19910;-91
